createdAt,value
2017-09-15T00:00:56.557Z,73.20
2017-09-15T00:03:24.939Z,72.90
2017-09-15T00:05:53.297Z,72.90
2017-09-15T00:08:21.691Z,73.00
2017-09-15T00:10:50.067Z,73.20
2017-09-15T00:13:18.433Z,73.30
2017-09-15T00:15:46.871Z,73.80
2017-09-15T00:18:15.235Z,73.30
2017-09-15T00:20:44.428Z,73.10
2017-09-15T00:23:13.585Z,73.40
2017-09-15T00:25:41.954Z,73.40
2017-09-15T00:28:10.323Z,73.40
2017-09-15T00:30:38.700Z,73.20
2017-09-15T00:33:07.077Z,73.20
2017-09-15T00:35:36.649Z,73.40
2017-09-15T00:38:06.507Z,73.50
2017-09-15T00:40:35.254Z,73.50
2017-09-15T00:43:03.641Z,74.40
2017-09-15T00:45:32.022Z,74.30
2017-09-15T00:48:00.390Z,74.30
2017-09-15T00:50:28.063Z,74.10
2017-09-15T00:52:56.439Z,74.00
2017-09-15T00:55:24.805Z,73.90
2017-09-15T00:57:53.165Z,74.20
2017-09-15T01:00:21.781Z,74.20
2017-09-15T01:02:50.157Z,74.20
2017-09-15T01:05:18.533Z,74.20
2017-09-15T01:07:46.916Z,74.40
2017-09-15T01:10:15.403Z,74.30
2017-09-15T01:12:43.789Z,74.10
2017-09-15T01:15:12.169Z,74.00
2017-09-15T01:17:40.340Z,74.50
2017-09-15T01:20:08.766Z,74.90
2017-09-15T01:22:37.226Z,74.40
2017-09-15T01:25:05.610Z,74.30
2017-09-15T01:27:34.744Z,75.10
2017-09-15T01:30:03.150Z,74.40
2017-09-15T01:32:31.526Z,74.50
2017-09-15T01:34:59.883Z,74.20
2017-09-15T01:37:28.091Z,74.20
2017-09-15T01:39:56.269Z,74.20
2017-09-15T01:42:24.644Z,74.40
2017-09-15T01:44:53.025Z,74.50
2017-09-15T01:47:21.397Z,74.20
2017-09-15T01:49:49.765Z,74.60
2017-09-15T01:52:18.924Z,74.90
2017-09-15T01:54:47.403Z,74.30
2017-09-15T01:57:15.791Z,75.20
2017-09-15T01:59:44.263Z,75.40
2017-09-15T02:02:12.627Z,75.50
2017-09-15T02:04:40.644Z,75.70
2017-09-15T02:07:09.032Z,76.00
2017-09-15T02:09:37.396Z,76.20
2017-09-15T02:12:05.812Z,76.40
2017-09-15T02:14:34.961Z,76.20
2017-09-15T02:17:03.328Z,76.10
2017-09-15T02:19:31.683Z,76.40
2017-09-15T02:22:00.075Z,76.90
2017-09-15T02:24:28.460Z,77.10
2017-09-15T02:26:56.832Z,77.70
2017-09-15T02:29:25.286Z,77.90
2017-09-15T02:31:53.774Z,77.60
2017-09-15T02:34:24.889Z,78.00
2017-09-15T02:36:54.172Z,77.80
2017-09-15T02:39:23.814Z,77.80
2017-09-15T02:41:53.044Z,77.30
2017-09-15T02:44:21.823Z,77.50
2017-09-15T02:46:50.224Z,77.40
2017-09-15T02:49:18.636Z,77.80
2017-09-15T02:51:47.103Z,77.40
2017-09-15T02:54:15.469Z,77.30
2017-09-15T02:56:43.866Z,77.90
2017-09-15T02:59:12.243Z,77.20
2017-09-15T03:01:40.617Z,77.30
2017-09-15T03:04:08.665Z,77.60
2017-09-15T03:06:43.576Z,77.40
2017-09-15T03:09:11.931Z,77.50
2017-09-15T03:11:40.114Z,77.30
2017-09-15T03:14:08.479Z,77.30
2017-09-15T03:16:36.854Z,77.60
2017-09-15T03:19:06.754Z,77.90
2017-09-15T03:21:35.709Z,78.40
2017-09-15T03:24:04.265Z,78.30
2017-09-15T03:26:32.691Z,78.50
2017-09-15T03:29:02.137Z,78.70
2017-09-15T03:31:30.766Z,78.20
2017-09-15T03:33:59.308Z,78.30
2017-09-15T03:36:27.724Z,78.00
2017-09-15T03:38:56.079Z,77.80
2017-09-15T03:41:24.463Z,77.90
2017-09-15T03:43:52.858Z,77.90
2017-09-15T03:46:21.024Z,77.50
2017-09-15T03:48:49.405Z,77.60
2017-09-15T03:51:17.800Z,77.70
2017-09-15T03:53:46.156Z,77.40
2017-09-15T03:56:15.293Z,77.00
2017-09-15T03:58:43.673Z,77.10
2017-09-15T04:01:12.815Z,76.90
2017-09-15T04:03:41.186Z,76.90
2017-09-15T04:06:09.696Z,76.90
2017-09-15T04:08:38.542Z,76.90
2017-09-15T04:11:07.751Z,77.00
2017-09-15T04:13:36.902Z,77.10
2017-09-15T04:16:05.532Z,77.40
2017-09-15T04:18:33.904Z,77.30
2017-09-15T04:21:02.288Z,77.20
2017-09-15T04:23:30.664Z,77.00
2017-09-15T04:25:59.027Z,77.40
2017-09-15T04:28:27.399Z,77.60
2017-09-15T04:30:55.754Z,77.60
2017-09-15T04:33:24.890Z,77.90
2017-09-15T04:35:53.268Z,77.90
2017-09-15T04:38:21.456Z,78.00
2017-09-15T04:40:49.634Z,78.30
2017-09-15T04:43:18.077Z,78.50
2017-09-15T04:45:46.780Z,78.80
2017-09-15T04:48:15.161Z,78.80
2017-09-15T04:50:44.491Z,79.20
2017-09-15T04:53:12.857Z,80.30
2017-09-15T04:55:41.276Z,79.60
2017-09-15T04:58:10.435Z,81.60
2017-09-15T05:00:38.815Z,81.60
2017-09-15T05:03:07.181Z,82.30
2017-09-15T05:05:35.584Z,82.00
2017-09-15T05:08:03.948Z,82.40
2017-09-15T05:10:32.320Z,83.40
2017-09-15T05:13:00.719Z,82.80
2017-09-15T05:15:29.076Z,82.50
2017-09-15T05:17:57.456Z,82.70
2017-09-15T05:20:25.876Z,83.20
2017-09-15T05:22:55.485Z,81.40
2017-09-15T05:25:23.858Z,81.40
2017-09-15T05:27:53.385Z,81.40
2017-09-15T05:30:22.243Z,81.40
2017-09-15T05:32:50.614Z,82.50
2017-09-15T05:35:20.735Z,83.70
2017-09-15T05:37:50.340Z,83.60
2017-09-15T05:40:19.906Z,83.20
2017-09-15T05:42:48.294Z,83.00
2017-09-15T05:45:16.469Z,83.80
2017-09-15T05:47:46.339Z,84.70
2017-09-15T05:50:14.977Z,84.60
2017-09-15T05:52:43.350Z,83.30
2017-09-15T05:55:11.716Z,83.50
2017-09-15T05:57:40.096Z,82.20
2017-09-15T06:00:08.457Z,81.30
2017-09-15T06:02:37.723Z,81.20
2017-09-15T06:05:06.126Z,82.40
2017-09-15T06:07:36.211Z,81.00
2017-09-15T06:10:04.583Z,80.10
2017-09-15T06:12:33.111Z,79.90
2017-09-15T06:15:01.481Z,79.30
2017-09-15T06:17:31.296Z,79.40
2017-09-15T06:19:59.727Z,79.30
2017-09-15T06:22:28.863Z,77.40
2017-09-15T06:24:57.959Z,77.30
2017-09-15T06:27:27.159Z,70.70
2017-09-15T06:29:55.571Z,70.60
2017-09-15T06:32:23.941Z,69.20
2017-09-15T06:34:52.321Z,67.50
2017-09-15T06:37:20.682Z,64.50
2017-09-15T06:39:49.082Z,63.80
2017-09-15T06:42:17.272Z,61.60
2017-09-15T06:44:46.467Z,60.70
2017-09-15T06:47:15.406Z,59.00
2017-09-15T06:49:43.811Z,59.00
2017-09-15T06:52:12.182Z,59.10
2017-09-15T06:54:40.552Z,58.60
2017-09-15T06:57:08.957Z,58.50
2017-09-15T06:59:38.110Z,57.60
2017-09-15T07:02:06.488Z,57.20
2017-09-15T07:04:34.872Z,55.50
2017-09-15T07:07:04.663Z,55.00
2017-09-15T07:09:33.156Z,55.20
2017-09-15T07:12:01.576Z,53.30
2017-09-15T07:14:29.959Z,52.20
2017-09-15T07:16:58.320Z,52.70
2017-09-15T07:19:27.848Z,52.60
2017-09-15T07:21:56.984Z,51.30
2017-09-15T07:24:25.354Z,51.40
2017-09-15T07:26:53.754Z,51.40
2017-09-15T07:29:22.214Z,50.90
2017-09-15T07:31:50.573Z,49.50
2017-09-15T07:34:19.042Z,49.50
2017-09-15T07:36:48.181Z,49.60
2017-09-15T07:39:16.567Z,48.90
2017-09-15T07:41:44.947Z,46.50
2017-09-15T07:44:13.468Z,46.90
2017-09-15T07:46:45.277Z,47.30
2017-09-15T07:49:13.668Z,46.50
2017-09-15T07:51:44.336Z,45.70
2017-09-15T07:54:14.546Z,46.70
2017-09-15T07:56:43.782Z,46.70
2017-09-15T07:59:14.668Z,45.60
2017-09-15T08:01:43.310Z,45.10
2017-09-15T08:04:11.678Z,44.50
2017-09-15T08:06:40.061Z,43.90
2017-09-15T08:09:08.464Z,44.30
2017-09-15T08:11:36.834Z,44.40
2017-09-15T08:14:05.200Z,42.50
2017-09-15T08:16:33.229Z,43.40
2017-09-15T08:19:02.173Z,45.40
2017-09-15T08:21:30.590Z,45.40
2017-09-15T08:23:58.984Z,44.70
2017-09-15T08:26:28.121Z,43.70
2017-09-15T08:28:56.543Z,43.60
2017-09-15T08:31:24.929Z,40.50
2017-09-15T08:33:54.075Z,39.30
2017-09-15T08:36:22.487Z,39.40
2017-09-15T08:38:50.691Z,40.40
2017-09-15T08:41:21.029Z,39.90
2017-09-15T08:43:50.449Z,39.80
2017-09-15T08:46:18.676Z,42.20
2017-09-15T08:48:47.617Z,46.10
2017-09-15T08:51:15.788Z,46.00
2017-09-15T08:53:44.168Z,48.90
2017-09-15T08:56:12.590Z,50.10
2017-09-15T08:58:40.982Z,51.40
2017-09-15T09:01:10.175Z,51.80
2017-09-15T09:03:39.327Z,55.40
2017-09-15T09:06:07.761Z,55.40
2017-09-15T09:08:36.318Z,55.10
2017-09-15T09:11:04.714Z,57.50
2017-09-15T09:13:33.876Z,52.30
2017-09-15T09:16:02.324Z,52.30
2017-09-15T09:18:31.294Z,50.20
2017-09-15T09:20:59.719Z,45.30
2017-09-15T09:23:29.136Z,39.80
2017-09-15T09:25:57.538Z,39.70
2017-09-15T09:28:27.097Z,35.80
2017-09-15T09:30:55.800Z,35.70
2017-09-15T09:33:24.975Z,33.60
2017-09-15T09:35:53.371Z,33.90
2017-09-15T09:38:21.781Z,35.70
2017-09-15T09:40:50.983Z,33.00
2017-09-15T09:43:20.144Z,34.90
2017-09-15T09:45:48.765Z,34.90
2017-09-15T09:48:17.249Z,30.30
2017-09-15T09:50:45.735Z,34.70
2017-09-15T09:53:14.213Z,31.70
2017-09-15T09:55:42.601Z,29.30
2017-09-15T09:58:10.993Z,31.70
2017-09-15T10:00:39.405Z,29.60
2017-09-15T10:03:07.818Z,33.20
2017-09-15T10:05:36.312Z,35.70
2017-09-15T10:08:05.949Z,32.30
2017-09-15T10:10:35.482Z,32.80
2017-09-15T10:13:04.008Z,28.10
2017-09-15T10:15:32.433Z,31.10
2017-09-15T10:18:00.820Z,29.30
2017-09-15T10:20:29.216Z,27.40
2017-09-15T10:22:58.396Z,28.80
2017-09-15T10:25:26.785Z,28.90
2017-09-15T10:27:55.948Z,29.90
2017-09-15T10:30:24.358Z,29.80
2017-09-15T10:32:53.524Z,30.30
2017-09-15T10:35:21.915Z,30.30
2017-09-15T10:37:50.146Z,28.20
2017-09-15T10:40:18.358Z,28.80
2017-09-15T10:42:46.563Z,28.00
2017-09-15T10:45:16.612Z,30.40
2017-09-15T10:47:45.032Z,30.50
2017-09-15T10:50:13.465Z,27.50
2017-09-15T10:52:42.175Z,28.20
2017-09-15T10:55:12.574Z,28.90
2017-09-15T10:57:46.464Z,30.30
2017-09-15T11:00:15.636Z,27.80
2017-09-15T11:02:44.984Z,30.00
2017-09-15T11:05:13.620Z,30.00
2017-09-15T11:07:42.073Z,29.40
2017-09-15T11:10:10.520Z,28.10
2017-09-15T11:12:38.944Z,31.20
2017-09-15T11:15:07.349Z,32.90
2017-09-15T11:17:35.754Z,29.80
2017-09-15T11:20:04.162Z,28.40
2017-09-15T11:22:32.556Z,27.30
2017-09-15T11:25:00.973Z,31.70
2017-09-15T11:27:29.379Z,28.70
2017-09-15T11:29:57.781Z,30.10
2017-09-15T11:32:26.179Z,28.30
2017-09-15T11:34:54.581Z,31.60
2017-09-15T11:37:23.741Z,36.50
2017-09-15T11:39:52.133Z,36.50
2017-09-15T11:42:21.053Z,38.60
2017-09-15T11:44:51.313Z,42.80
2017-09-15T11:47:20.281Z,40.80
2017-09-15T11:49:50.415Z,42.50
2017-09-15T11:52:18.819Z,42.50
2017-09-15T11:54:47.230Z,42.30
2017-09-15T11:57:16.421Z,43.90
2017-09-15T11:59:45.577Z,41.40
2017-09-15T12:02:13.985Z,41.40
2017-09-15T12:04:43.177Z,41.80
2017-09-15T12:07:13.119Z,41.10
2017-09-15T12:09:42.087Z,39.60
2017-09-15T12:12:11.264Z,35.30
2017-09-15T12:14:39.669Z,34.50
2017-09-15T12:17:08.836Z,36.80
2017-09-15T12:19:37.261Z,36.30
2017-09-15T12:22:05.657Z,37.00
2017-09-15T12:24:34.051Z,39.00
2017-09-15T12:27:02.454Z,38.60
2017-09-15T12:29:30.845Z,39.00
2017-09-15T12:32:00.051Z,39.70
2017-09-15T12:34:28.973Z,39.40
2017-09-15T12:36:57.494Z,38.10
2017-09-15T12:39:26.423Z,37.00
2017-09-15T12:41:54.881Z,38.60
2017-09-15T12:44:23.303Z,38.20
2017-09-15T12:46:51.785Z,32.50
2017-09-15T12:49:20.197Z,31.00
2017-09-15T12:51:48.605Z,30.80
2017-09-15T12:54:17.820Z,32.50
2017-09-15T12:56:46.231Z,32.40
2017-09-15T12:59:14.624Z,34.20
2017-09-15T13:01:43.024Z,37.80
2017-09-15T13:04:12.196Z,40.10
2017-09-15T13:06:40.648Z,40.10
2017-09-15T13:09:09.040Z,41.80
2017-09-15T13:11:37.521Z,40.00
2017-09-15T13:14:06.022Z,38.60
2017-09-15T13:16:34.806Z,39.30
2017-09-15T13:19:03.654Z,38.40
2017-09-15T13:21:32.158Z,35.40
2017-09-15T13:24:00.579Z,34.60
2017-09-15T13:26:28.994Z,32.70
2017-09-15T13:28:57.401Z,29.90
2017-09-15T13:31:25.803Z,28.80
2017-09-15T13:33:54.218Z,30.00
2017-09-15T13:36:22.603Z,32.00
2017-09-15T13:38:50.989Z,32.50
2017-09-15T13:41:19.401Z,33.70
2017-09-15T13:43:47.789Z,34.10
2017-09-15T13:46:16.757Z,34.30
2017-09-15T13:48:45.189Z,34.20
2017-09-15T13:51:13.701Z,36.80
2017-09-15T13:53:42.101Z,37.10
2017-09-15T13:56:11.260Z,38.70
2017-09-15T13:58:40.250Z,39.20
2017-09-15T14:01:08.689Z,39.10
2017-09-15T14:03:37.669Z,41.60
2017-09-15T14:06:06.064Z,38.10
2017-09-15T14:08:34.468Z,40.30
2017-09-15T14:11:03.648Z,43.50
2017-09-15T14:13:32.046Z,43.40
2017-09-15T14:16:01.236Z,45.30
2017-09-15T14:18:30.420Z,43.50
2017-09-15T14:21:00.140Z,46.40
2017-09-15T14:23:29.344Z,45.00
2017-09-15T14:25:57.752Z,44.90
2017-09-15T14:28:26.204Z,46.70
2017-09-15T14:30:54.598Z,46.20
2017-09-15T14:33:23.030Z,47.10
2017-09-15T14:35:53.595Z,48.40
2017-09-15T14:38:21.809Z,48.40
2017-09-15T14:40:50.218Z,45.00
2017-09-15T14:43:19.504Z,49.00
2017-09-15T14:45:47.904Z,46.00
2017-09-15T14:48:17.352Z,48.90
2017-09-15T14:50:45.765Z,48.90
2017-09-15T14:53:14.196Z,48.10
2017-09-15T14:55:42.880Z,46.50
2017-09-15T14:58:11.335Z,47.70
2017-09-15T15:00:40.238Z,49.00
2017-09-15T15:03:08.468Z,49.00
2017-09-15T15:05:37.455Z,49.10
2017-09-15T15:08:06.855Z,47.90
2017-09-15T15:10:35.270Z,47.90
2017-09-15T15:13:04.437Z,49.40
2017-09-15T15:15:32.831Z,49.40
2017-09-15T15:18:02.261Z,43.90
2017-09-15T15:20:30.649Z,43.80
2017-09-15T15:22:58.865Z,44.00
2017-09-15T15:25:28.269Z,44.30
2017-09-15T15:27:56.666Z,44.30
2017-09-15T15:30:25.830Z,46.00
2017-09-15T15:32:54.056Z,46.00
2017-09-15T15:35:22.863Z,45.20
2017-09-15T15:37:51.286Z,45.80
2017-09-15T15:40:19.709Z,46.70
2017-09-15T15:42:48.100Z,47.30
2017-09-15T15:45:16.497Z,47.00
2017-09-15T15:47:44.938Z,46.70
2017-09-15T15:50:13.149Z,47.80
2017-09-15T15:52:41.372Z,47.00
2017-09-15T15:55:10.548Z,47.00
2017-09-15T15:57:38.948Z,47.00
2017-09-15T16:00:09.304Z,48.60
2017-09-15T16:02:37.984Z,48.70
2017-09-15T16:05:06.674Z,48.30
2017-09-15T16:07:35.986Z,48.40
2017-09-15T16:10:05.273Z,49.60
2017-09-15T16:12:33.695Z,48.10
2017-09-15T16:15:05.926Z,49.80
2017-09-15T16:17:34.326Z,49.80
2017-09-15T16:20:02.721Z,48.90
2017-09-15T16:22:31.131Z,48.00
2017-09-15T16:24:59.550Z,49.40
2017-09-15T16:27:27.740Z,50.70
2017-09-15T16:29:56.732Z,52.10
2017-09-15T16:32:24.948Z,52.20
2017-09-15T16:34:53.352Z,50.30
2017-09-15T16:37:21.572Z,48.80
2017-09-15T16:39:55.509Z,48.40
2017-09-15T16:42:29.360Z,49.70
2017-09-15T16:45:03.212Z,50.60
2017-09-15T16:47:38.071Z,50.50
2017-09-15T16:50:06.965Z,50.50
2017-09-15T16:52:35.357Z,51.30
2017-09-15T16:55:03.484Z,52.30
2017-09-15T16:57:32.684Z,53.10
2017-09-15T17:00:01.075Z,53.10
2017-09-15T17:02:29.288Z,54.00
2017-09-15T17:04:57.485Z,53.50
2017-09-15T17:07:25.871Z,54.60
2017-09-15T17:09:54.869Z,55.50
2017-09-15T17:12:24.082Z,55.60
2017-09-15T17:14:52.477Z,55.50
2017-09-15T17:17:20.932Z,55.90
2017-09-15T17:19:49.330Z,56.50
2017-09-15T17:22:17.544Z,56.70
2017-09-15T17:24:45.962Z,56.90
2017-09-15T17:27:14.381Z,57.30
2017-09-15T17:29:42.767Z,57.40
2017-09-15T17:32:11.185Z,57.80
2017-09-15T17:34:40.358Z,58.40
2017-09-15T17:37:08.749Z,58.50
2017-09-15T17:39:37.156Z,58.90
2017-09-15T17:42:05.548Z,60.20
2017-09-15T17:44:33.949Z,59.50
2017-09-15T17:47:02.165Z,59.30
2017-09-15T17:49:31.377Z,60.30
2017-09-15T17:52:00.532Z,61.30
2017-09-15T17:54:28.933Z,61.30
2017-09-15T17:56:58.103Z,62.00
2017-09-15T17:59:26.509Z,62.00
2017-09-15T18:01:55.490Z,62.30
2017-09-15T18:04:23.888Z,62.20
2017-09-15T18:06:52.805Z,61.10
2017-09-15T18:09:21.943Z,61.90
2017-09-15T18:11:52.214Z,66.10
2017-09-15T18:14:22.342Z,67.30
2017-09-15T18:16:52.008Z,67.10
2017-09-15T18:19:21.552Z,67.50
2017-09-15T18:21:50.241Z,67.50
2017-09-15T18:24:20.144Z,68.40
2017-09-15T18:26:48.559Z,68.00
2017-09-15T18:29:16.964Z,67.70
2017-09-15T18:31:45.384Z,68.90
2017-09-15T18:34:13.788Z,69.90
2017-09-15T18:36:42.204Z,70.00
2017-09-15T18:39:10.612Z,72.10
2017-09-15T18:41:38.835Z,72.60
2017-09-15T18:44:07.663Z,73.80
2017-09-15T18:46:36.840Z,73.50
2017-09-15T18:49:05.232Z,73.50
2017-09-15T18:51:34.436Z,73.90
2017-09-15T18:54:03.624Z,74.20
2017-09-15T18:56:32.592Z,74.70
2017-09-15T18:59:00.800Z,74.60
2017-09-15T19:01:29.795Z,74.00
2017-09-15T19:03:58.498Z,74.00
2017-09-15T19:06:26.962Z,73.80
2017-09-15T19:08:55.371Z,73.20
2017-09-15T19:11:23.765Z,73.00
2017-09-15T19:13:52.165Z,74.70
2017-09-15T19:16:20.579Z,74.90
2017-09-15T19:18:48.994Z,75.50
2017-09-15T19:21:17.445Z,75.50
2017-09-15T19:23:45.873Z,75.70
2017-09-15T19:26:14.269Z,75.10
2017-09-15T19:28:43.436Z,75.90
2017-09-15T19:31:11.860Z,75.90
2017-09-15T19:33:40.437Z,74.80
2017-09-15T19:36:09.597Z,75.60
2017-09-15T19:38:38.010Z,75.70
2017-09-15T19:41:07.177Z,77.60
2017-09-15T19:43:35.819Z,77.60
2017-09-15T19:46:05.097Z,77.60
2017-09-15T19:48:33.484Z,78.00
2017-09-15T19:51:01.884Z,78.30
2017-09-15T19:53:30.294Z,79.10
2017-09-15T19:55:58.680Z,78.40
2017-09-15T19:58:27.064Z,78.50
2017-09-15T20:00:56.052Z,78.70
2017-09-15T20:03:24.449Z,78.70
2017-09-15T20:05:53.612Z,78.80
2017-09-15T20:08:22.034Z,78.70
2017-09-15T20:10:50.425Z,79.50
2017-09-15T20:13:18.807Z,78.50
2017-09-15T20:15:47.225Z,79.00
2017-09-15T20:18:15.633Z,80.00
2017-09-15T20:20:52.672Z,80.00
2017-09-15T20:23:21.142Z,80.60
2017-09-15T20:25:49.564Z,79.60
2017-09-15T20:28:19.598Z,80.60
2017-09-15T20:30:48.070Z,80.50
2017-09-15T20:33:16.456Z,80.90
2017-09-15T20:35:44.864Z,80.80
2017-09-15T20:38:13.286Z,81.20
2017-09-15T20:40:42.664Z,80.60
2017-09-15T20:43:11.628Z,80.60
2017-09-15T20:45:40.088Z,81.10
2017-09-15T20:48:08.502Z,80.80
2017-09-15T20:50:38.279Z,81.70
2017-09-15T20:53:06.492Z,80.30
2017-09-15T20:55:35.854Z,80.60
2017-09-15T20:58:04.390Z,81.00
2017-09-15T21:00:32.785Z,81.10
2017-09-15T21:03:01.943Z,80.70
2017-09-15T21:05:30.364Z,80.60
2017-09-15T21:07:59.565Z,81.00
2017-09-15T21:10:28.737Z,78.80
2017-09-15T21:12:57.220Z,78.70
2017-09-15T21:15:25.641Z,77.00
2017-09-15T21:17:54.038Z,76.90
2017-09-15T21:20:22.449Z,77.90
2017-09-15T21:22:50.859Z,78.00
2017-09-15T21:25:20.083Z,79.20
2017-09-15T21:27:48.483Z,79.20
2017-09-15T21:30:16.885Z,78.60
2017-09-15T21:32:45.277Z,77.80
2017-09-15T21:35:14.573Z,77.60
2017-09-15T21:37:43.793Z,77.00
2017-09-15T21:40:12.205Z,76.90
2017-09-15T21:42:40.645Z,79.20
2017-09-15T21:45:09.137Z,81.00
2017-09-15T21:47:37.536Z,80.50
2017-09-15T21:50:05.969Z,80.60
2017-09-15T21:52:35.300Z,81.90
2017-09-15T21:55:03.692Z,81.90
2017-09-15T21:57:32.105Z,81.40
2017-09-15T22:00:00.504Z,82.80
2017-09-15T22:02:30.340Z,81.60
2017-09-15T22:04:58.860Z,82.40
2017-09-15T22:07:27.255Z,81.70
2017-09-15T22:09:55.667Z,81.70
2017-09-15T22:12:24.837Z,83.20
2017-09-15T22:14:53.993Z,83.90
2017-09-15T22:17:22.404Z,83.90
2017-09-15T22:19:50.810Z,84.90
2017-09-15T22:22:19.988Z,84.70
2017-09-15T22:24:48.379Z,84.80
2017-09-15T22:27:17.580Z,84.70
2017-09-15T22:29:46.740Z,85.50
2017-09-15T22:32:15.169Z,85.50
2017-09-15T22:34:43.585Z,85.80
2017-09-15T22:37:11.980Z,85.50
2017-09-15T22:39:40.385Z,85.40
2017-09-15T22:42:09.624Z,86.20
2017-09-15T22:44:38.029Z,86.10
2017-09-15T22:47:06.099Z,86.40
2017-09-15T22:49:34.525Z,86.70
2017-09-15T22:52:02.929Z,86.10
2017-09-15T22:54:31.338Z,86.00
2017-09-15T22:56:59.837Z,86.70
2017-09-15T22:59:29.021Z,86.00
2017-09-15T23:01:57.414Z,86.00
2017-09-15T23:04:26.597Z,86.50
2017-09-15T23:06:54.993Z,85.70
2017-09-15T23:09:24.157Z,87.00
2017-09-15T23:11:52.581Z,86.90
2017-09-15T23:14:21.754Z,85.60
2017-09-15T23:16:50.145Z,85.60
2017-09-15T23:19:19.317Z,85.90
2017-09-15T23:21:47.713Z,85.80
2017-09-15T23:24:16.105Z,86.70
2017-09-15T23:26:45.288Z,87.80
2017-09-15T23:29:14.454Z,88.20
2017-09-15T23:31:42.870Z,88.20
2017-09-15T23:34:12.052Z,88.30
2017-09-15T23:36:40.444Z,88.20
2017-09-15T23:39:09.608Z,88.40
2017-09-15T23:41:38.018Z,88.40
2017-09-15T23:44:07.571Z,88.30
2017-09-15T23:46:35.972Z,88.20
2017-09-15T23:49:04.412Z,88.10
2017-09-15T23:51:32.800Z,88.30
2017-09-15T23:54:01.252Z,87.90
2017-09-15T23:56:29.665Z,88.00
2017-09-15T23:58:58.056Z,88.20
